sensor_id;sensor_type;location;lat;lon;timestamp;P1;durP1;ratioP1;P2;durP2;ratioP2
6438;SDS011;3252;52.540;13.290;2022-07-23T00:00:33;8.87;;;4.37;;
6438;SDS011;3252;52.540;13.290;2022-07-23T00:02:35;9.20;;;4.50;;
6438;SDS011;3252;52.540;13.290;2022-07-23T00:04:38;6.17;;;4.17;;
6438;SDS011;3252;52.540;13.290;2022-07-23T00:06:39;6.37;;;4.23;;
6438;SDS011;3252;52.540;13.290;2022-07-23T00:08:41;8.60;;;4.60;;
6438;SDS011;3252;52.540;13.290;2022-07-23T00:10:43;7.93;;;4.10;;
6438;SDS011;3252;52.540;13.290;2022-07-23T00:12:47;8.00;;;4.37;;
6438;SDS011;3252;52.540;13.290;2022-07-23T00:14:49;5.70;;;4.13;;
6438;SDS011;3252;52.540;13.290;2022-07-23T00:16:51;6.13;;;3.97;;
6438;SDS011;3252;52.540;13.290;2022-07-23T00:18:53;5.37;;;4.00;;
6438;SDS011;3252;52.540;13.290;2022-07-23T00:20:55;6.20;;;4.20;;
6438;SDS011;3252;52.540;13.290;2022-07-23T00:22:57;8.03;;;4.13;;
6438;SDS011;3252;52.540;13.290;2022-07-23T00:24:59;12.40;;;4.40;;
6438;SDS011;3252;52.540;13.290;2022-07-23T00:27:01;5.93;;;3.97;;
6438;SDS011;3252;52.540;13.290;2022-07-23T00:29:04;7.83;;;4.60;;
6438;SDS011;3252;52.540;13.290;2022-07-23T00:31:06;5.93;;;3.90;;
6438;SDS011;3252;52.540;13.290;2022-07-23T00:33:08;6.23;;;3.80;;
6438;SDS011;3252;52.540;13.290;2022-07-23T00:35:10;7.30;;;3.77;;
6438;SDS011;3252;52.540;13.290;2022-07-23T00:37:12;5.07;;;4.20;;
6438;SDS011;3252;52.540;13.290;2022-07-23T00:39:14;7.33;;;4.17;;
6438;SDS011;3252;52.540;13.290;2022-07-23T00:41:17;6.63;;;4.07;;
6438;SDS011;3252;52.540;13.290;2022-07-23T00:43:19;8.20;;;3.90;;
6438;SDS011;3252;52.540;13.290;2022-07-23T00:45:23;7.57;;;4.43;;
6438;SDS011;3252;52.540;13.290;2022-07-23T00:47:25;6.93;;;4.00;;
6438;SDS011;3252;52.540;13.290;2022-07-23T00:49:28;5.47;;;4.00;;
6438;SDS011;3252;52.540;13.290;2022-07-23T00:51:32;6.17;;;4.30;;
6438;SDS011;3252;52.540;13.290;2022-07-23T00:53:34;8.37;;;4.37;;
6438;SDS011;3252;52.540;13.290;2022-07-23T00:55:37;8.13;;;3.97;;
6438;SDS011;3252;52.540;13.290;2022-07-23T00:57:40;7.77;;;4.40;;
6438;SDS011;3252;52.540;13.290;2022-07-23T00:59:43;8.10;;;4.57;;
6438;SDS011;3252;52.540;13.290;2022-07-23T01:01:47;7.60;;;4.40;;
6438;SDS011;3252;52.540;13.290;2022-07-23T01:03:49;11.33;;;4.50;;
6438;SDS011;3252;52.540;13.290;2022-07-23T01:05:53;8.17;;;4.87;;
6438;SDS011;3252;52.540;13.290;2022-07-23T01:07:55;6.93;;;4.53;;
6438;SDS011;3252;52.540;13.290;2022-07-23T01:10:00;7.60;;;4.57;;
6438;SDS011;3252;52.540;13.290;2022-07-23T01:12:04;10.43;;;4.20;;
6438;SDS011;3252;52.540;13.290;2022-07-23T01:14:08;6.57;;;4.20;;
6438;SDS011;3252;52.540;13.290;2022-07-23T01:16:11;9.83;;;4.17;;
6438;SDS011;3252;52.540;13.290;2022-07-23T01:18:15;8.97;;;4.60;;
6438;SDS011;3252;52.540;13.290;2022-07-23T01:20:18;6.67;;;4.20;;
6438;SDS011;3252;52.540;13.290;2022-07-23T01:22:20;8.67;;;4.60;;
6438;SDS011;3252;52.540;13.290;2022-07-23T01:24:24;8.20;;;4.37;;
6438;SDS011;3252;52.540;13.290;2022-07-23T01:26:36;7.67;;;4.50;;
6438;SDS011;3252;52.540;13.290;2022-07-23T01:28:39;7.40;;;4.40;;
6438;SDS011;3252;52.540;13.290;2022-07-23T01:30:42;9.47;;;4.93;;
6438;SDS011;3252;52.540;13.290;2022-07-23T01:32:44;7.07;;;4.67;;
6438;SDS011;3252;52.540;13.290;2022-07-23T01:34:46;7.47;;;4.40;;
6438;SDS011;3252;52.540;13.290;2022-07-23T01:36:48;6.87;;;4.47;;
6438;SDS011;3252;52.540;13.290;2022-07-23T01:38:51;9.07;;;4.07;;
6438;SDS011;3252;52.540;13.290;2022-07-23T01:40:55;6.87;;;4.57;;
6438;SDS011;3252;52.540;13.290;2022-07-23T01:43:03;6.57;;;4.10;;
6438;SDS011;3252;52.540;13.290;2022-07-23T01:45:07;8.50;;;4.40;;
6438;SDS011;3252;52.540;13.290;2022-07-23T01:47:12;7.70;;;4.67;;
6438;SDS011;3252;52.540;13.290;2022-07-23T01:49:14;8.90;;;4.40;;
6438;SDS011;3252;52.540;13.290;2022-07-23T01:51:35;8.87;;;5.30;;
6438;SDS011;3252;52.540;13.290;2022-07-23T01:53:43;8.93;;;4.60;;
6438;SDS011;3252;52.540;13.290;2022-07-23T01:55:46;8.43;;;4.50;;
6438;SDS011;3252;52.540;13.290;2022-07-23T01:57:49;9.37;;;4.67;;
6438;SDS011;3252;52.540;13.290;2022-07-23T01:59:54;8.17;;;4.40;;
6438;SDS011;3252;52.540;13.290;2022-07-23T02:01:56;7.00;;;4.70;;
6438;SDS011;3252;52.540;13.290;2022-07-23T02:03:58;6.77;;;4.67;;
6438;SDS011;3252;52.540;13.290;2022-07-23T02:06:00;5.83;;;4.60;;
6438;SDS011;3252;52.540;13.290;2022-07-23T02:08:03;6.50;;;4.40;;
6438;SDS011;3252;52.540;13.290;2022-07-23T02:10:09;10.13;;;4.57;;
6438;SDS011;3252;52.540;13.290;2022-07-23T02:12:12;10.57;;;5.00;;
6438;SDS011;3252;52.540;13.290;2022-07-23T02:14:15;7.23;;;4.60;;
6438;SDS011;3252;52.540;13.290;2022-07-23T02:16:17;7.90;;;4.70;;
6438;SDS011;3252;52.540;13.290;2022-07-23T02:18:19;8.40;;;4.60;;
6438;SDS011;3252;52.540;13.290;2022-07-23T02:20:21;8.63;;;4.57;;
6438;SDS011;3252;52.540;13.290;2022-07-23T02:22:24;7.77;;;4.53;;
6438;SDS011;3252;52.540;13.290;2022-07-23T02:24:25;6.33;;;4.47;;
6438;SDS011;3252;52.540;13.290;2022-07-23T02:26:27;13.23;;;5.20;;
6438;SDS011;3252;52.540;13.290;2022-07-23T02:28:30;6.87;;;4.93;;
6438;SDS011;3252;52.540;13.290;2022-07-23T02:30:34;6.73;;;4.60;;
6438;SDS011;3252;52.540;13.290;2022-07-23T02:32:36;8.93;;;5.00;;
6438;SDS011;3252;52.540;13.290;2022-07-23T02:34:39;7.57;;;4.60;;
6438;SDS011;3252;52.540;13.290;2022-07-23T02:36:41;7.50;;;4.80;;
6438;SDS011;3252;52.540;13.290;2022-07-23T02:38:44;7.83;;;4.50;;
6438;SDS011;3252;52.540;13.290;2022-07-23T02:40:46;7.37;;;4.50;;
6438;SDS011;3252;52.540;13.290;2022-07-23T02:42:48;8.00;;;4.80;;
6438;SDS011;3252;52.540;13.290;2022-07-23T02:44:50;10.27;;;4.80;;
6438;SDS011;3252;52.540;13.290;2022-07-23T02:46:53;8.70;;;4.70;;
6438;SDS011;3252;52.540;13.290;2022-07-23T02:48:56;10.53;;;5.23;;
6438;SDS011;3252;52.540;13.290;2022-07-23T02:50:58;12.97;;;5.07;;
6438;SDS011;3252;52.540;13.290;2022-07-23T02:53:06;12.47;;;4.43;;
6438;SDS011;3252;52.540;13.290;2022-07-23T02:55:08;9.00;;;4.90;;
6438;SDS011;3252;52.540;13.290;2022-07-23T02:57:11;10.30;;;4.97;;
6438;SDS011;3252;52.540;13.290;2022-07-23T02:59:13;11.53;;;4.37;;
6438;SDS011;3252;52.540;13.290;2022-07-23T03:01:15;10.60;;;4.80;;
6438;SDS011;3252;52.540;13.290;2022-07-23T03:03:20;10.17;;;4.53;;
6438;SDS011;3252;52.540;13.290;2022-07-23T03:05:23;7.60;;;4.13;;
6438;SDS011;3252;52.540;13.290;2022-07-23T03:07:25;10.43;;;4.27;;
6438;SDS011;3252;52.540;13.290;2022-07-23T03:09:27;7.20;;;4.10;;
6438;SDS011;3252;52.540;13.290;2022-07-23T03:11:29;7.17;;;4.10;;
6438;SDS011;3252;52.540;13.290;2022-07-23T03:13:32;6.90;;;4.03;;
6438;SDS011;3252;52.540;13.290;2022-07-23T03:15:34;8.93;;;4.10;;
6438;SDS011;3252;52.540;13.290;2022-07-23T03:17:36;9.77;;;4.10;;
6438;SDS011;3252;52.540;13.290;2022-07-23T03:19:39;11.37;;;3.97;;
6438;SDS011;3252;52.540;13.290;2022-07-23T03:21:42;10.57;;;4.03;;
6438;SDS011;3252;52.540;13.290;2022-07-23T03:23:46;10.77;;;4.17;;
6438;SDS011;3252;52.540;13.290;2022-07-23T03:25:48;9.93;;;4.53;;
6438;SDS011;3252;52.540;13.290;2022-07-23T03:27:50;7.10;;;3.97;;
6438;SDS011;3252;52.540;13.290;2022-07-23T03:29:53;10.00;;;5.03;;
6438;SDS011;3252;52.540;13.290;2022-07-23T03:31:57;7.90;;;3.73;;
6438;SDS011;3252;52.540;13.290;2022-07-23T03:33:59;8.17;;;3.73;;
6438;SDS011;3252;52.540;13.290;2022-07-23T03:36:03;6.27;;;3.17;;
6438;SDS011;3252;52.540;13.290;2022-07-23T03:38:07;7.50;;;3.50;;
6438;SDS011;3252;52.540;13.290;2022-07-23T03:40:09;6.97;;;3.30;;
6438;SDS011;3252;52.540;13.290;2022-07-23T03:42:13;10.20;;;3.40;;
6438;SDS011;3252;52.540;13.290;2022-07-23T03:44:14;9.83;;;3.63;;
6438;SDS011;3252;52.540;13.290;2022-07-23T03:46:16;8.93;;;3.57;;
6438;SDS011;3252;52.540;13.290;2022-07-23T03:48:19;5.87;;;3.10;;
6438;SDS011;3252;52.540;13.290;2022-07-23T03:50:21;8.63;;;3.30;;
6438;SDS011;3252;52.540;13.290;2022-07-23T03:52:24;10.30;;;3.60;;
6438;SDS011;3252;52.540;13.290;2022-07-23T03:54:26;6.93;;;3.17;;
6438;SDS011;3252;52.540;13.290;2022-07-23T03:56:28;7.73;;;3.10;;
6438;SDS011;3252;52.540;13.290;2022-07-23T03:58:31;11.10;;;3.00;;
6438;SDS011;3252;52.540;13.290;2022-07-23T04:00:33;8.70;;;3.03;;
6438;SDS011;3252;52.540;13.290;2022-07-23T04:02:35;6.40;;;3.03;;
6438;SDS011;3252;52.540;13.290;2022-07-23T04:04:37;7.37;;;3.47;;
6438;SDS011;3252;52.540;13.290;2022-07-23T04:06:40;5.03;;;3.00;;
6438;SDS011;3252;52.540;13.290;2022-07-23T04:08:43;9.63;;;2.83;;
6438;SDS011;3252;52.540;13.290;2022-07-23T04:10:45;9.77;;;3.00;;
6438;SDS011;3252;52.540;13.290;2022-07-23T04:12:48;7.87;;;3.10;;
6438;SDS011;3252;52.540;13.290;2022-07-23T04:14:50;8.53;;;2.83;;
6438;SDS011;3252;52.540;13.290;2022-07-23T04:16:52;7.60;;;3.07;;
6438;SDS011;3252;52.540;13.290;2022-07-23T04:18:54;6.00;;;3.00;;
6438;SDS011;3252;52.540;13.290;2022-07-23T04:20:57;11.67;;;3.20;;
6438;SDS011;3252;52.540;13.290;2022-07-23T04:22:59;11.07;;;2.97;;
6438;SDS011;3252;52.540;13.290;2022-07-23T04:25:03;10.83;;;3.37;;
6438;SDS011;3252;52.540;13.290;2022-07-23T04:27:06;10.00;;;3.50;;
6438;SDS011;3252;52.540;13.290;2022-07-23T04:29:08;14.67;;;3.43;;
6438;SDS011;3252;52.540;13.290;2022-07-23T04:31:10;17.17;;;4.03;;
6438;SDS011;3252;52.540;13.290;2022-07-23T04:33:13;12.70;;;3.80;;
6438;SDS011;3252;52.540;13.290;2022-07-23T04:35:15;9.97;;;3.60;;
6438;SDS011;3252;52.540;13.290;2022-07-23T04:37:18;12.73;;;3.33;;
6438;SDS011;3252;52.540;13.290;2022-07-23T04:39:20;10.40;;;3.37;;
6438;SDS011;3252;52.540;13.290;2022-07-23T04:41:24;9.70;;;3.30;;
6438;SDS011;3252;52.540;13.290;2022-07-23T04:43:26;7.90;;;3.50;;
6438;SDS011;3252;52.540;13.290;2022-07-23T04:45:28;11.97;;;3.77;;
6438;SDS011;3252;52.540;13.290;2022-07-23T04:47:31;13.87;;;3.97;;
6438;SDS011;3252;52.540;13.290;2022-07-23T04:49:33;13.87;;;3.90;;
6438;SDS011;3252;52.540;13.290;2022-07-23T04:51:35;12.50;;;3.87;;
6438;SDS011;3252;52.540;13.290;2022-07-23T04:53:37;11.33;;;3.40;;
6438;SDS011;3252;52.540;13.290;2022-07-23T04:55:39;9.77;;;3.27;;
6438;SDS011;3252;52.540;13.290;2022-07-23T04:57:42;12.67;;;3.80;;
6438;SDS011;3252;52.540;13.290;2022-07-23T04:59:45;7.13;;;3.00;;
6438;SDS011;3252;52.540;13.290;2022-07-23T05:01:48;7.30;;;2.93;;
6438;SDS011;3252;52.540;13.290;2022-07-23T05:03:50;10.30;;;2.97;;
6438;SDS011;3252;52.540;13.290;2022-07-23T05:05:52;9.70;;;3.40;;
6438;SDS011;3252;52.540;13.290;2022-07-23T05:07:54;8.43;;;3.33;;
6438;SDS011;3252;52.540;13.290;2022-07-23T05:09:56;11.33;;;3.60;;
6438;SDS011;3252;52.540;13.290;2022-07-23T05:11:58;10.57;;;3.67;;
6438;SDS011;3252;52.540;13.290;2022-07-23T05:14:02;12.40;;;3.93;;
6438;SDS011;3252;52.540;13.290;2022-07-23T05:16:04;9.77;;;3.70;;
6438;SDS011;3252;52.540;13.290;2022-07-23T05:18:06;10.07;;;4.07;;
6438;SDS011;3252;52.540;13.290;2022-07-23T05:20:08;11.87;;;3.17;;
6438;SDS011;3252;52.540;13.290;2022-07-23T05:22:11;12.80;;;3.60;;
6438;SDS011;3252;52.540;13.290;2022-07-23T05:24:13;8.47;;;3.50;;
6438;SDS011;3252;52.540;13.290;2022-07-23T05:26:15;13.00;;;3.40;;
6438;SDS011;3252;52.540;13.290;2022-07-23T05:28:17;8.33;;;3.33;;
6438;SDS011;3252;52.540;13.290;2022-07-23T05:30:20;9.23;;;3.50;;
6438;SDS011;3252;52.540;13.290;2022-07-23T05:32:26;7.90;;;3.30;;
6438;SDS011;3252;52.540;13.290;2022-07-23T05:34:38;10.27;;;3.10;;
6438;SDS011;3252;52.540;13.290;2022-07-23T05:36:40;11.67;;;3.57;;
6438;SDS011;3252;52.540;13.290;2022-07-23T05:38:44;9.93;;;3.60;;
6438;SDS011;3252;52.540;13.290;2022-07-23T05:40:46;8.90;;;3.20;;
6438;SDS011;3252;52.540;13.290;2022-07-23T05:42:48;11.47;;;3.33;;
6438;SDS011;3252;52.540;13.290;2022-07-23T05:44:50;8.13;;;3.03;;
6438;SDS011;3252;52.540;13.290;2022-07-23T05:46:53;9.77;;;3.30;;
6438;SDS011;3252;52.540;13.290;2022-07-23T05:48:59;6.63;;;2.80;;
6438;SDS011;3252;52.540;13.290;2022-07-23T05:51:21;9.37;;;3.33;;
6438;SDS011;3252;52.540;13.290;2022-07-23T05:53:25;8.53;;;3.40;;
6438;SDS011;3252;52.540;13.290;2022-07-23T05:55:40;8.43;;;3.30;;
6438;SDS011;3252;52.540;13.290;2022-07-23T05:57:43;9.43;;;3.47;;
6438;SDS011;3252;52.540;13.290;2022-07-23T05:59:45;10.73;;;3.67;;
6438;SDS011;3252;52.540;13.290;2022-07-23T06:01:47;12.63;;;3.53;;
6438;SDS011;3252;52.540;13.290;2022-07-23T06:03:52;7.53;;;3.27;;
6438;SDS011;3252;52.540;13.290;2022-07-23T06:06:03;7.97;;;3.17;;
6438;SDS011;3252;52.540;13.290;2022-07-23T06:08:06;8.43;;;2.70;;
6438;SDS011;3252;52.540;13.290;2022-07-23T06:10:08;8.83;;;3.60;;
6438;SDS011;3252;52.540;13.290;2022-07-23T06:12:11;11.07;;;3.33;;
6438;SDS011;3252;52.540;13.290;2022-07-23T06:14:13;10.30;;;3.70;;
6438;SDS011;3252;52.540;13.290;2022-07-23T06:16:27;8.10;;;3.20;;
6438;SDS011;3252;52.540;13.290;2022-07-23T06:18:32;11.60;;;3.83;;
6438;SDS011;3252;52.540;13.290;2022-07-23T06:20:36;8.73;;;3.23;;
6438;SDS011;3252;52.540;13.290;2022-07-23T06:22:38;10.93;;;3.60;;
6438;SDS011;3252;52.540;13.290;2022-07-23T06:24:43;10.97;;;3.87;;
6438;SDS011;3252;52.540;13.290;2022-07-23T06:26:45;7.90;;;3.53;;
6438;SDS011;3252;52.540;13.290;2022-07-23T06:28:50;11.03;;;3.97;;
6438;SDS011;3252;52.540;13.290;2022-07-23T06:30:52;9.83;;;3.50;;
6438;SDS011;3252;52.540;13.290;2022-07-23T06:32:54;9.63;;;3.60;;
6438;SDS011;3252;52.540;13.290;2022-07-23T06:34:56;8.70;;;3.57;;
6438;SDS011;3252;52.540;13.290;2022-07-23T06:36:59;11.03;;;3.67;;
6438;SDS011;3252;52.540;13.290;2022-07-23T06:39:02;11.63;;;3.53;;
6438;SDS011;3252;52.540;13.290;2022-07-23T06:41:07;7.27;;;3.20;;
6438;SDS011;3252;52.540;13.290;2022-07-23T06:43:09;9.07;;;3.60;;
6438;SDS011;3252;52.540;13.290;2022-07-23T06:45:12;9.17;;;3.63;;
6438;SDS011;3252;52.540;13.290;2022-07-23T06:47:14;11.27;;;3.57;;
6438;SDS011;3252;52.540;13.290;2022-07-23T06:49:16;10.57;;;4.10;;
6438;SDS011;3252;52.540;13.290;2022-07-23T06:51:18;11.83;;;4.03;;
6438;SDS011;3252;52.540;13.290;2022-07-23T06:53:24;9.17;;;3.80;;
6438;SDS011;3252;52.540;13.290;2022-07-23T06:55:26;11.23;;;3.80;;
6438;SDS011;3252;52.540;13.290;2022-07-23T06:57:29;10.30;;;3.80;;
6438;SDS011;3252;52.540;13.290;2022-07-23T06:59:31;10.03;;;3.60;;
6438;SDS011;3252;52.540;13.290;2022-07-23T07:01:39;9.03;;;3.80;;
6438;SDS011;3252;52.540;13.290;2022-07-23T07:03:41;10.80;;;3.60;;
6438;SDS011;3252;52.540;13.290;2022-07-23T07:05:43;8.90;;;3.60;;
6438;SDS011;3252;52.540;13.290;2022-07-23T07:07:46;7.73;;;3.63;;
6438;SDS011;3252;52.540;13.290;2022-07-23T07:09:49;12.37;;;3.90;;
6438;SDS011;3252;52.540;13.290;2022-07-23T07:11:51;8.43;;;3.27;;
6438;SDS011;3252;52.540;13.290;2022-07-23T07:13:53;8.10;;;3.27;;
6438;SDS011;3252;52.540;13.290;2022-07-23T07:15:56;9.17;;;3.30;;
6438;SDS011;3252;52.540;13.290;2022-07-23T07:17:57;8.50;;;3.40;;
6438;SDS011;3252;52.540;13.290;2022-07-23T07:20:03;9.37;;;3.37;;
6438;SDS011;3252;52.540;13.290;2022-07-23T07:22:06;11.30;;;3.73;;
6438;SDS011;3252;52.540;13.290;2022-07-23T07:24:08;7.27;;;2.83;;
6438;SDS011;3252;52.540;13.290;2022-07-23T07:26:12;12.13;;;3.53;;
6438;SDS011;3252;52.540;13.290;2022-07-23T07:28:14;7.87;;;3.27;;
6438;SDS011;3252;52.540;13.290;2022-07-23T07:30:16;9.53;;;3.63;;
6438;SDS011;3252;52.540;13.290;2022-07-23T07:32:18;7.30;;;3.10;;
6438;SDS011;3252;52.540;13.290;2022-07-23T07:34:23;11.13;;;3.70;;
6438;SDS011;3252;52.540;13.290;2022-07-23T07:36:25;8.77;;;3.60;;
6438;SDS011;3252;52.540;13.290;2022-07-23T07:38:27;8.47;;;3.83;;
6438;SDS011;3252;52.540;13.290;2022-07-23T07:40:29;7.27;;;3.47;;
6438;SDS011;3252;52.540;13.290;2022-07-23T07:42:32;12.20;;;3.70;;
6438;SDS011;3252;52.540;13.290;2022-07-23T07:44:34;11.33;;;4.20;;
6438;SDS011;3252;52.540;13.290;2022-07-23T07:46:36;8.73;;;3.70;;
6438;SDS011;3252;52.540;13.290;2022-07-23T07:48:38;14.63;;;4.23;;
6438;SDS011;3252;52.540;13.290;2022-07-23T07:50:40;9.63;;;4.50;;
6438;SDS011;3252;52.540;13.290;2022-07-23T07:52:42;12.43;;;4.13;;
6438;SDS011;3252;52.540;13.290;2022-07-23T07:54:44;12.60;;;4.10;;
6438;SDS011;3252;52.540;13.290;2022-07-23T07:56:46;9.37;;;4.47;;
6438;SDS011;3252;52.540;13.290;2022-07-23T07:58:50;9.30;;;5.10;;
6438;SDS011;3252;52.540;13.290;2022-07-23T08:00:52;9.83;;;4.20;;
6438;SDS011;3252;52.540;13.290;2022-07-23T08:02:54;11.60;;;4.43;;
6438;SDS011;3252;52.540;13.290;2022-07-23T08:04:56;9.23;;;3.97;;
6438;SDS011;3252;52.540;13.290;2022-07-23T08:06:58;9.00;;;3.00;;
6438;SDS011;3252;52.540;13.290;2022-07-23T08:09:00;9.03;;;3.37;;
6438;SDS011;3252;52.540;13.290;2022-07-23T08:11:02;7.37;;;3.27;;
6438;SDS011;3252;52.540;13.290;2022-07-23T08:13:04;10.30;;;3.40;;
6438;SDS011;3252;52.540;13.290;2022-07-23T08:15:08;7.93;;;3.27;;
6438;SDS011;3252;52.540;13.290;2022-07-23T08:17:10;10.63;;;3.07;;
6438;SDS011;3252;52.540;13.290;2022-07-23T08:19:12;9.97;;;2.80;;
6438;SDS011;3252;52.540;13.290;2022-07-23T08:21:14;9.73;;;2.73;;
6438;SDS011;3252;52.540;13.290;2022-07-23T08:23:16;8.80;;;3.00;;
6438;SDS011;3252;52.540;13.290;2022-07-23T08:25:20;7.83;;;2.87;;
6438;SDS011;3252;52.540;13.290;2022-07-23T08:27:23;9.37;;;2.70;;
6438;SDS011;3252;52.540;13.290;2022-07-23T08:29:25;8.63;;;3.27;;
6438;SDS011;3252;52.540;13.290;2022-07-23T08:31:29;11.63;;;3.40;;
6438;SDS011;3252;52.540;13.290;2022-07-23T08:33:33;8.43;;;3.10;;
6438;SDS011;3252;52.540;13.290;2022-07-23T08:35:36;11.77;;;3.50;;
6438;SDS011;3252;52.540;13.290;2022-07-23T08:37:39;12.33;;;3.40;;
6438;SDS011;3252;52.540;13.290;2022-07-23T08:39:41;6.87;;;2.80;;
6438;SDS011;3252;52.540;13.290;2022-07-23T08:41:43;6.47;;;2.90;;
6438;SDS011;3252;52.540;13.290;2022-07-23T08:43:45;9.07;;;2.93;;
6438;SDS011;3252;52.540;13.290;2022-07-23T08:45:48;6.67;;;2.70;;
6438;SDS011;3252;52.540;13.290;2022-07-23T08:47:54;10.33;;;2.87;;
6438;SDS011;3252;52.540;13.290;2022-07-23T08:49:58;8.00;;;2.67;;
6438;SDS011;3252;52.540;13.290;2022-07-23T08:52:01;9.03;;;2.20;;
6438;SDS011;3252;52.540;13.290;2022-07-23T08:54:03;8.80;;;2.47;;
6438;SDS011;3252;52.540;13.290;2022-07-23T08:56:05;9.63;;;2.23;;
6438;SDS011;3252;52.540;13.290;2022-07-23T08:58:08;6.63;;;2.10;;
6438;SDS011;3252;52.540;13.290;2022-07-23T09:00:10;8.40;;;2.57;;
6438;SDS011;3252;52.540;13.290;2022-07-23T09:02:13;6.33;;;2.50;;
6438;SDS011;3252;52.540;13.290;2022-07-23T09:04:16;6.50;;;2.40;;
6438;SDS011;3252;52.540;13.290;2022-07-23T09:06:18;5.97;;;2.10;;
6438;SDS011;3252;52.540;13.290;2022-07-23T09:08:21;8.37;;;2.53;;
6438;SDS011;3252;52.540;13.290;2022-07-23T09:10:25;5.73;;;2.17;;
6438;SDS011;3252;52.540;13.290;2022-07-23T09:12:27;4.67;;;1.80;;
6438;SDS011;3252;52.540;13.290;2022-07-23T09:14:36;8.03;;;2.53;;
6438;SDS011;3252;52.540;13.290;2022-07-23T09:16:39;6.70;;;2.50;;
6438;SDS011;3252;52.540;13.290;2022-07-23T09:18:43;6.63;;;2.40;;
6438;SDS011;3252;52.540;13.290;2022-07-23T09:20:47;6.00;;;2.50;;
6438;SDS011;3252;52.540;13.290;2022-07-23T09:22:49;7.23;;;2.60;;
6438;SDS011;3252;52.540;13.290;2022-07-23T09:25:05;5.70;;;2.47;;
6438;SDS011;3252;52.540;13.290;2022-07-23T09:27:11;9.37;;;2.60;;
6438;SDS011;3252;52.540;13.290;2022-07-23T09:29:15;9.63;;;2.70;;
6438;SDS011;3252;52.540;13.290;2022-07-23T09:31:18;6.77;;;2.40;;
6438;SDS011;3252;52.540;13.290;2022-07-23T09:33:20;8.10;;;2.60;;
6438;SDS011;3252;52.540;13.290;2022-07-23T09:35:25;7.57;;;2.73;;
6438;SDS011;3252;52.540;13.290;2022-07-23T09:37:49;9.00;;;2.60;;
6438;SDS011;3252;52.540;13.290;2022-07-23T09:40:03;7.37;;;2.23;;
6438;SDS011;3252;52.540;13.290;2022-07-23T09:42:12;6.15;;;1.98;;
6438;SDS011;3252;52.540;13.290;2022-07-23T09:44:16;6.00;;;2.40;;
6438;SDS011;3252;52.540;13.290;2022-07-23T09:46:19;9.27;;;2.97;;
6438;SDS011;3252;52.540;13.290;2022-07-23T09:48:23;7.63;;;3.10;;
6438;SDS011;3252;52.540;13.290;2022-07-23T09:50:25;7.18;;;3.00;;
6438;SDS011;3252;52.540;13.290;2022-07-23T09:52:27;5.78;;;2.40;;
6438;SDS011;3252;52.540;13.290;2022-07-23T09:54:32;9.15;;;2.70;;
6438;SDS011;3252;52.540;13.290;2022-07-23T09:56:35;8.88;;;2.70;;
6438;SDS011;3252;52.540;13.290;2022-07-23T09:58:39;9.30;;;2.70;;
6438;SDS011;3252;52.540;13.290;2022-07-23T10:00:50;7.85;;;2.72;;
6438;SDS011;3252;52.540;13.290;2022-07-23T10:02:53;6.50;;;2.30;;
6438;SDS011;3252;52.540;13.290;2022-07-23T10:05:02;7.85;;;2.83;;
6438;SDS011;3252;52.540;13.290;2022-07-23T10:07:25;7.13;;;2.50;;
6438;SDS011;3252;52.540;13.290;2022-07-23T10:09:50;7.07;;;2.50;;
6438;SDS011;3252;52.540;13.290;2022-07-23T10:12:12;5.85;;;2.42;;
6438;SDS011;3252;52.540;13.290;2022-07-23T10:14:32;6.35;;;2.85;;
6438;SDS011;3252;52.540;13.290;2022-07-23T10:16:38;8.43;;;2.50;;
6438;SDS011;3252;52.540;13.290;2022-07-23T10:18:40;5.25;;;2.40;;
6438;SDS011;3252;52.540;13.290;2022-07-23T10:20:42;5.00;;;2.17;;
6438;SDS011;3252;52.540;13.290;2022-07-23T10:22:47;4.38;;;2.30;;
6438;SDS011;3252;52.540;13.290;2022-07-23T10:25:04;5.80;;;2.45;;
6438;SDS011;3252;52.540;13.290;2022-07-23T10:27:20;5.28;;;2.28;;
6438;SDS011;3252;52.540;13.290;2022-07-23T10:29:36;6.40;;;2.33;;
6438;SDS011;3252;52.540;13.290;2022-07-23T10:31:50;7.73;;;2.63;;
6438;SDS011;3252;52.540;13.290;2022-07-23T10:34:01;4.22;;;2.40;;
6438;SDS011;3252;52.540;13.290;2022-07-23T10:36:16;4.83;;;2.17;;
6438;SDS011;3252;52.540;13.290;2022-07-23T10:38:23;11.07;;;2.70;;
6438;SDS011;3252;52.540;13.290;2022-07-23T10:40:29;4.63;;;2.30;;
6438;SDS011;3252;52.540;13.290;2022-07-23T10:42:33;6.82;;;2.40;;
6438;SDS011;3252;52.540;13.290;2022-07-23T10:44:39;6.95;;;2.35;;
6438;SDS011;3252;52.540;13.290;2022-07-23T10:46:53;5.18;;;2.10;;
6438;SDS011;3252;52.540;13.290;2022-07-23T10:49:22;5.03;;;2.20;;
6438;SDS011;3252;52.540;13.290;2022-07-23T10:51:28;6.45;;;2.28;;
6438;SDS011;3252;52.540;13.290;2022-07-23T10:53:33;5.68;;;2.42;;
6438;SDS011;3252;52.540;13.290;2022-07-23T10:55:56;4.75;;;2.25;;
6438;SDS011;3252;52.540;13.290;2022-07-23T10:57:58;6.05;;;2.45;;
6438;SDS011;3252;52.540;13.290;2022-07-23T11:00:16;9.35;;;2.67;;
6438;SDS011;3252;52.540;13.290;2022-07-23T11:02:23;6.70;;;2.42;;
6438;SDS011;3252;52.540;13.290;2022-07-23T11:07:07;6.70;;;2.78;;
6438;SDS011;3252;52.540;13.290;2022-07-23T11:09:24;6.30;;;2.90;;
6438;SDS011;3252;52.540;13.290;2022-07-23T11:11:27;6.50;;;2.80;;
6438;SDS011;3252;52.540;13.290;2022-07-23T11:13:36;4.72;;;2.42;;
6438;SDS011;3252;52.540;13.290;2022-07-23T11:16:03;8.05;;;2.50;;
6438;SDS011;3252;52.540;13.290;2022-07-23T11:18:06;7.10;;;2.63;;
6438;SDS011;3252;52.540;13.290;2022-07-23T11:20:19;5.38;;;2.47;;
6438;SDS011;3252;52.540;13.290;2022-07-23T11:22:33;7.80;;;2.65;;
6438;SDS011;3252;52.540;13.290;2022-07-23T11:24:36;6.82;;;2.40;;
6438;SDS011;3252;52.540;13.290;2022-07-23T11:26:54;6.72;;;2.47;;
6438;SDS011;3252;52.540;13.290;2022-07-23T11:29:12;7.50;;;2.58;;
6438;SDS011;3252;52.540;13.290;2022-07-23T11:31:52;8.93;;;2.47;;
6438;SDS011;3252;52.540;13.290;2022-07-23T11:36:29;7.65;;;2.45;;
6438;SDS011;3252;52.540;13.290;2022-07-23T11:38:50;5.97;;;2.40;;
6438;SDS011;3252;52.540;13.290;2022-07-23T11:40:54;6.10;;;2.28;;
6438;SDS011;3252;52.540;13.290;2022-07-23T11:43:00;5.60;;;2.33;;
6438;SDS011;3252;52.540;13.290;2022-07-23T11:45:05;6.90;;;2.63;;
6438;SDS011;3252;52.540;13.290;2022-07-23T11:47:08;4.47;;;2.20;;
6438;SDS011;3252;52.540;13.290;2022-07-23T11:49:12;7.55;;;2.33;;
6438;SDS011;3252;52.540;13.290;2022-07-23T11:51:24;7.38;;;2.55;;
6438;SDS011;3252;52.540;13.290;2022-07-23T11:53:27;7.43;;;2.42;;
6438;SDS011;3252;52.540;13.290;2022-07-23T11:55:30;7.55;;;3.10;;
6438;SDS011;3252;52.540;13.290;2022-07-23T11:57:33;7.30;;;2.65;;
6438;SDS011;3252;52.540;13.290;2022-07-23T11:59:37;6.25;;;2.50;;
6438;SDS011;3252;52.540;13.290;2022-07-23T12:01:52;10.50;;;2.42;;
6438;SDS011;3252;52.540;13.290;2022-07-23T12:03:57;8.68;;;2.72;;
6438;SDS011;3252;52.540;13.290;2022-07-23T12:05:59;5.97;;;2.53;;
6438;SDS011;3252;52.540;13.290;2022-07-23T12:08:03;5.90;;;2.65;;
6438;SDS011;3252;52.540;13.290;2022-07-23T12:10:09;5.43;;;2.50;;
6438;SDS011;3252;52.540;13.290;2022-07-23T12:12:12;4.38;;;2.33;;
6438;SDS011;3252;52.540;13.290;2022-07-23T12:14:14;6.97;;;2.80;;
6438;SDS011;3252;52.540;13.290;2022-07-23T12:16:18;6.97;;;2.42;;
6438;SDS011;3252;52.540;13.290;2022-07-23T12:18:20;6.32;;;2.58;;
6438;SDS011;3252;52.540;13.290;2022-07-23T12:20:24;9.75;;;2.53;;
6438;SDS011;3252;52.540;13.290;2022-07-23T12:22:32;8.40;;;2.58;;
6438;SDS011;3252;52.540;13.290;2022-07-23T12:27:08;4.80;;;2.22;;
6438;SDS011;3252;52.540;13.290;2022-07-23T12:29:11;5.82;;;2.60;;
6438;SDS011;3252;52.540;13.290;2022-07-23T12:31:13;5.95;;;2.70;;
6438;SDS011;3252;52.540;13.290;2022-07-23T12:33:27;6.22;;;2.58;;
6438;SDS011;3252;52.540;13.290;2022-07-23T12:35:31;7.05;;;2.55;;
6438;SDS011;3252;52.540;13.290;2022-07-23T12:37:37;6.03;;;2.50;;
6438;SDS011;3252;52.540;13.290;2022-07-23T12:39:41;8.20;;;2.47;;
6438;SDS011;3252;52.540;13.290;2022-07-23T12:41:52;6.45;;;2.47;;
6438;SDS011;3252;52.540;13.290;2022-07-23T12:43:55;9.38;;;2.40;;
6438;SDS011;3252;52.540;13.290;2022-07-23T12:46:01;6.45;;;2.40;;